createdAt,value
2019-01-17T00:00:47.164Z,100.00
2019-01-17T00:06:27.125Z,100.00
2019-01-17T00:11:51.887Z,100.00
2019-01-17T00:17:13.958Z,100.00
2019-01-17T00:22:37.210Z,99.97
2019-01-17T00:27:48.686Z,97.37
2019-01-17T00:33:04.406Z,97.70
2019-01-17T00:38:22.357Z,96.14
2019-01-17T00:43:53.258Z,96.37
2019-01-17T00:49:18.628Z,95.36
2019-01-17T00:54:44.232Z,96.37
2019-01-17T01:00:01.578Z,97.10
2019-01-17T01:05:32.366Z,96.51
2019-01-17T01:10:53.196Z,95.84
2019-01-17T01:16:16.981Z,95.98
2019-01-17T01:21:37.187Z,96.67
2019-01-17T01:27:01.906Z,97.19
2019-01-17T01:32:11.556Z,97.16
2019-01-17T01:37:32.198Z,98.58
2019-01-17T01:42:53.224Z,99.01
2019-01-17T01:48:09.126Z,99.97
2019-01-17T01:53:11.607Z,99.54
2019-01-17T01:58:14.419Z,99.08
2019-01-17T02:03:18.663Z,99.88
2019-01-17T02:08:22.248Z,99.73
2019-01-17T02:13:25.116Z,99.67
2019-01-17T02:18:27.990Z,100.00
2019-01-17T02:23:30.772Z,99.01
2019-01-17T02:28:33.260Z,99.49
2019-01-17T02:33:35.760Z,99.25
2019-01-17T02:38:38.464Z,98.22
2019-01-17T02:43:40.842Z,99.03
2019-01-17T02:48:43.467Z,98.09
2019-01-17T02:53:46.508Z,97.71
2019-01-17T02:58:49.250Z,96.83
2019-01-17T03:03:51.468Z,97.41
2019-01-17T03:08:54.028Z,96.37
2019-01-17T03:13:56.831Z,96.94
2019-01-17T03:18:59.837Z,96.42
2019-01-17T03:24:02.336Z,96.67
2019-01-17T03:29:05.057Z,95.84
2019-01-17T03:34:07.626Z,96.13
2019-01-17T03:39:10.627Z,95.66
2019-01-17T03:44:13.007Z,96.83
2019-01-17T03:49:15.617Z,96.18
2019-01-17T03:54:17.999Z,96.12
2019-01-17T03:59:21.121Z,95.37
2019-01-17T04:04:23.813Z,95.61
2019-01-17T04:09:27.117Z,94.53
2019-01-17T04:14:29.790Z,93.95
2019-01-17T04:19:32.621Z,94.10
2019-01-17T04:24:35.006Z,93.71
2019-01-17T04:29:37.497Z,94.22
2019-01-17T04:34:39.597Z,94.73
2019-01-17T04:39:42.244Z,95.66
2019-01-17T04:44:44.684Z,96.42
2019-01-17T04:49:47.778Z,96.02
2019-01-17T04:54:50.456Z,96.51
2019-01-17T04:59:53.121Z,96.40
2019-01-17T05:04:55.559Z,96.37
2019-01-17T05:09:58.224Z,95.47
2019-01-17T05:15:01.201Z,95.48
2019-01-17T05:20:05.610Z,96.89
2019-01-17T05:25:12.802Z,96.51
2019-01-17T05:30:15.875Z,96.96
2019-01-17T05:35:18.651Z,97.31
2019-01-17T05:40:22.032Z,97.18
2019-01-17T05:45:24.617Z,97.46
2019-01-17T05:50:27.288Z,97.17
2019-01-17T05:55:29.511Z,97.31
2019-01-17T06:00:32.129Z,97.28
2019-01-17T06:05:34.901Z,96.66
2019-01-17T06:10:36.986Z,96.61
2019-01-17T06:15:40.805Z,96.28
2019-01-17T06:20:43.218Z,95.60
2019-01-17T06:25:45.278Z,95.26
2019-01-17T06:30:47.982Z,95.07
2019-01-17T06:35:50.673Z,95.32
2019-01-17T06:40:53.708Z,94.67
2019-01-17T06:45:56.564Z,94.68
2019-01-17T06:50:59.081Z,94.68
2019-01-17T06:56:02.134Z,94.72
2019-01-17T07:01:05.048Z,94.64
2019-01-17T07:06:07.490Z,93.97
2019-01-17T07:11:09.978Z,94.00
2019-01-17T07:16:12.782Z,94.26
2019-01-17T07:21:15.271Z,94.05
2019-01-17T07:26:17.654Z,96.13
2019-01-17T07:31:20.360Z,96.69
2019-01-17T07:36:23.255Z,95.68
2019-01-17T07:41:26.100Z,94.98
2019-01-17T07:46:28.961Z,94.87
2019-01-17T07:51:31.966Z,96.10
2019-01-17T07:56:34.701Z,95.67
2019-01-17T08:01:37.292Z,97.61
2019-01-17T08:06:40.260Z,97.34
2019-01-17T08:11:42.927Z,96.96
2019-01-17T08:16:45.195Z,96.04
2019-01-17T08:21:48.004Z,95.65
2019-01-17T08:26:50.620Z,95.47
2019-01-17T08:31:53.667Z,94.96
2019-01-17T08:36:56.467Z,95.19
2019-01-17T08:41:59.573Z,94.41
2019-01-17T08:47:02.388Z,93.65
2019-01-17T08:52:05.218Z,93.59
2019-01-17T08:57:08.328Z,93.87
2019-01-17T09:02:11.164Z,94.07
2019-01-17T09:07:14.177Z,93.91
2019-01-17T09:12:17.369Z,94.31
2019-01-17T09:17:20.178Z,95.10
2019-01-17T09:22:22.676Z,95.42
2019-01-17T09:27:25.510Z,96.56
2019-01-17T09:32:28.686Z,96.56
2019-01-17T09:37:31.184Z,96.00
2019-01-17T09:42:33.359Z,95.06
2019-01-17T09:47:36.567Z,94.40
2019-01-17T09:52:39.193Z,95.00
2019-01-17T09:57:41.898Z,95.23
2019-01-17T10:02:44.556Z,95.02
2019-01-17T10:07:47.181Z,95.21
2019-01-17T10:12:50.589Z,95.65
2019-01-17T10:18:21.224Z,96.07
2019-01-17T10:23:46.868Z,96.42
2019-01-17T10:29:15.981Z,96.28
2019-01-17T10:34:48.748Z,95.54
2019-01-17T10:40:38.998Z,93.93
2019-01-17T10:46:23.806Z,91.74
2019-01-17T10:51:43.656Z,92.99
2019-01-17T10:57:03.561Z,93.93
2019-01-17T11:02:56.884Z,93.72
2019-01-17T11:08:37.982Z,91.80
2019-01-17T11:14:07.976Z,90.19
2019-01-17T11:20:02.935Z,89.05
2019-01-17T11:25:40.336Z,87.49
2019-01-17T11:31:29.738Z,87.46
2019-01-17T11:37:26.375Z,88.00
2019-01-17T11:42:56.044Z,87.65
2019-01-17T11:48:27.716Z,88.40
2019-01-17T11:54:07.895Z,88.30
2019-01-17T11:59:18.378Z,87.94
2019-01-17T12:04:35.844Z,88.59
2019-01-17T12:09:38.612Z,89.09
2019-01-17T12:14:41.797Z,89.15
2019-01-17T12:19:44.534Z,88.87
2019-01-17T12:24:47.771Z,88.72
2019-01-17T12:29:50.345Z,91.19
2019-01-17T12:34:53.135Z,91.80
2019-01-17T12:39:55.526Z,92.46
2019-01-17T12:44:58.437Z,93.48
2019-01-17T12:50:01.639Z,93.57
2019-01-17T12:55:05.027Z,93.91
2019-01-17T13:00:11.083Z,93.86
2019-01-17T13:05:14.331Z,93.62
2019-01-17T13:10:17.256Z,93.90
2019-01-17T13:15:20.431Z,94.93
2019-01-17T13:20:23.337Z,95.37
2019-01-17T13:25:26.210Z,93.70
2019-01-17T13:30:28.509Z,93.06
2019-01-17T13:35:31.186Z,90.38
2019-01-17T13:40:34.042Z,90.75
2019-01-17T13:45:37.147Z,91.24
2019-01-17T13:50:39.742Z,89.74
2019-01-17T13:55:42.519Z,90.01
2019-01-17T14:00:45.296Z,89.11
2019-01-17T14:05:47.841Z,89.68
2019-01-17T14:10:50.712Z,89.81
2019-01-17T14:15:53.535Z,89.32
2019-01-17T14:20:56.027Z,89.56
2019-01-17T14:25:59.057Z,90.85
2019-01-17T14:31:01.713Z,90.96
2019-01-17T14:36:04.575Z,91.04
2019-01-17T14:41:07.552Z,91.65
2019-01-17T14:46:10.260Z,91.49
2019-01-17T14:51:13.003Z,91.62
2019-01-17T14:56:15.649Z,90.02
2019-01-17T15:01:18.325Z,88.26
2019-01-17T15:06:21.422Z,88.00
2019-01-17T15:11:24.324Z,87.19
2019-01-17T15:16:27.241Z,87.38
2019-01-17T15:21:30.124Z,87.81
2019-01-17T15:26:32.654Z,88.99
2019-01-17T15:31:35.222Z,88.96
2019-01-17T15:36:37.157Z,89.73
2019-01-17T15:41:39.713Z,90.70
2019-01-17T15:46:42.201Z,90.65
2019-01-17T15:51:44.390Z,90.40
2019-01-17T15:56:47.091Z,89.30
2019-01-17T16:01:50.091Z,88.84
2019-01-17T16:06:52.896Z,88.65
2019-01-17T16:11:56.082Z,88.69
2019-01-17T16:16:59.077Z,89.36
2019-01-17T16:22:02.010Z,89.24
2019-01-17T16:27:05.079Z,89.92
2019-01-17T16:32:07.901Z,89.91
2019-01-17T16:37:10.417Z,89.58
2019-01-17T16:42:13.230Z,89.77
2019-01-17T16:47:16.524Z,89.79
2019-01-17T16:52:19.249Z,89.53
2019-01-17T16:57:21.705Z,88.30
2019-01-17T17:02:24.600Z,88.46
2019-01-17T17:07:27.410Z,87.70
2019-01-17T17:12:30.099Z,88.80
2019-01-17T17:17:32.635Z,89.24
2019-01-17T17:22:35.415Z,88.16
2019-01-17T17:27:38.544Z,90.51
2019-01-17T17:32:41.385Z,89.66
2019-01-17T17:37:43.680Z,89.22
2019-01-17T17:42:45.976Z,89.15
2019-01-17T17:47:48.789Z,88.56
2019-01-17T17:52:51.927Z,88.74
2019-01-17T17:57:55.130Z,88.82
2019-01-17T18:02:58.629Z,87.54
2019-01-17T18:08:01.026Z,87.37
2019-01-17T18:13:03.921Z,86.63
2019-01-17T18:18:07.232Z,84.43
2019-01-17T18:23:10.082Z,84.44
2019-01-17T18:28:12.929Z,84.60
2019-01-17T18:33:16.058Z,83.35
2019-01-17T18:38:19.785Z,83.34
2019-01-17T18:43:22.389Z,84.07
2019-01-17T18:48:24.356Z,85.42
2019-01-17T18:53:27.357Z,85.75
2019-01-17T18:58:31.034Z,87.22
2019-01-17T19:03:34.142Z,86.00
2019-01-17T19:08:37.386Z,83.14
2019-01-17T19:13:41.344Z,83.17
2019-01-17T19:18:44.877Z,84.88
2019-01-17T19:23:50.575Z,85.41
2019-01-17T19:28:54.407Z,83.79
2019-01-17T19:33:58.076Z,84.80
2019-01-17T19:39:03.702Z,86.49
2019-01-17T19:44:06.886Z,87.79
2019-01-17T19:49:10.127Z,88.97
2019-01-17T19:54:13.790Z,88.57
2019-01-17T19:59:19.167Z,87.26
2019-01-17T20:04:26.245Z,87.12
2019-01-17T20:09:31.537Z,87.33
2019-01-17T20:14:36.594Z,87.24
2019-01-17T20:19:42.552Z,87.61
2019-01-17T20:24:47.722Z,87.03
2019-01-17T20:29:53.466Z,87.39
2019-01-17T20:35:00.795Z,86.88
2019-01-17T20:40:06.430Z,87.17
2019-01-17T20:45:13.302Z,87.91
2019-01-17T20:50:26.886Z,87.13
2019-01-17T20:55:32.638Z,87.05
2019-01-17T21:00:40.866Z,86.21
2019-01-17T21:05:47.880Z,84.09
2019-01-17T21:10:52.957Z,82.02
2019-01-17T21:16:01.175Z,81.13
2019-01-17T21:21:01.785Z,81.99
2019-01-17T21:26:05.173Z,81.11
2019-01-17T21:31:08.025Z,81.42
2019-01-17T21:36:11.737Z,82.58
2019-01-17T21:41:14.640Z,83.12
2019-01-17T21:46:17.115Z,80.65
2019-01-17T21:51:20.316Z,76.66
2019-01-17T21:56:22.706Z,75.79
2019-01-17T22:01:26.143Z,74.24
2019-01-17T22:06:28.514Z,74.23
2019-01-17T22:11:31.217Z,74.01
2019-01-17T22:16:34.215Z,74.53
2019-01-17T22:21:36.814Z,73.33
2019-01-17T22:26:39.699Z,73.35
2019-01-17T22:31:42.400Z,73.67
2019-01-17T22:36:45.425Z,72.09
2019-01-17T22:41:48.337Z,73.26
2019-01-17T22:46:51.023Z,73.31
2019-01-17T22:51:54.042Z,73.55
2019-01-17T22:56:57.132Z,73.42
2019-01-17T23:02:00.352Z,73.14
2019-01-17T23:07:03.025Z,72.97
2019-01-17T23:12:05.925Z,72.80
2019-01-17T23:17:09.032Z,72.40
2019-01-17T23:22:11.503Z,71.75
2019-01-17T23:27:14.464Z,71.78
2019-01-17T23:32:17.339Z,71.73
2019-01-17T23:37:20.446Z,71.25
2019-01-17T23:42:22.911Z,72.27
2019-01-17T23:47:25.732Z,72.64
2019-01-17T23:52:28.839Z,72.37
2019-01-17T23:57:31.495Z,73.51
